North Palm Beach, FL (33408)

3:17 PM EDT on August 04, 2015 (GMT -0400)
Juno Isles | | Change Station
CLOSE
Current Station
Personal Weather Station
Location: N Palm Beach, FL
Elevation: 39 ft
Nearby Weather Stations

Elev 39 ft 26.86 °N, 80.06 °W | Updated 11 minutes ago

Overcast
Overcast
94.1 °F
Feels Like 108 °F
N
5.8
Wind Variable Wind from East

Today
High -- | Low -- °F
--% Chance of Precip.
Yesterday
High -- | Low -- °F
Precip. -- in
6:46 AM 8:06 PM
Waning Gibbous, 75% visible
Pressure 30.06 in
Visibility 10.0 miles
Clouds Scattered Clouds 4200 ft
Scattered Clouds 5500 ft
Scattered Clouds 15000 ft
Heat Index 108 °F
Dew Point 76 °F
Humidity 57%
Rainfall 0.04 in
Snow Depth Not available.
UV 11 out of 12
Pollen 3.40 out of 12
Air Quality Not available.
Flu Activity Not available.
METAR KPBI 041853Z 11009G16KT 10SM SCT042 SCT055 SCT150 32/23 A3006 RMK AO2 SLP178 CB DSNT S NW-N T03170228

More Conditions Fewer Conditions

Pressure 30.06 in
Visibility 10.0 miles
Clouds Scattered Clouds 4200 ft
Scattered Clouds 5500 ft
Scattered Clouds 15000 ft
Heat Index 108 °F
Dew Point 76 °F
Humidity 57%
Rainfall 0.04 in
Snow Depth Not available.
UV 11 out of 12
Pollen 3.40 out of 12
Air Quality Not available.
Flu Activity Not available.
METAR KPBI 041853Z 11009G16KT 10SM SCT042 SCT055 SCT150 32/23 A3006 RMK AO2 SLP178 CB DSNT S NW-N T03170228

More Conditions Fewer Conditions

10-Day Weather Forecast

×

Almanac

Astronomy

Aug. 04, 2015 Rise Set
Actual Time
Civil Twilight
Nautical Twilight
Astronomical Twilight
Moon
Length of Visible Light
Length of Day
Tomorrow will be .
, % of the Moon is Illuminated

Today's Extremes

State Highs State Lows

Community

WunderPhotos

Upload Photos

1,843,954 photos uploaded!

WunderBlogs® & News

Nearby

Air Quality

  Air Quality AQ Index Pollutant
Not available.

Snow Depth

Station Depth Elevation

Earthquake Activity

City Distance Mag. Time & Date
Minimum magnitude displayed is 2.5.

Coastal Water Temperatures

Place Temperature

Stations

Nearby Weather Stations

Station Location Temp. Windchill Dew Point Humidity Wind Precip. Elev Updated Type